Currie, Texas
Current Conditions -  °F | °C
As of 4:35 AM on Thursday 23 Oct 2014 (Local Time) from KLXY Reporting Station
Broken Clouds Broken Clouds  
Wind Chill: 62°   Ceiling: 12000
Heat Index: 62°   Visibility: 10mi
Dew Point: 55°   Wind: 0mph
Humidity: 78%   Direction: NA
Pressure: 30.1"   Gusts: NA
Location:  31.7923°N, 96.3714°W
Report Text: KLXY 230935Z AUTO 00000KT 10SM BKN120 17/13 A3010 RMK AO2 T01680129
Loading
Personal Weather Stations






























Interactive Weather Map New forecast layout! Learn more

10-Day Weather Forecast

Advertisements
Track Severe Weather on mobile